sensor_id;sensor_type;location;lat;lon;timestamp;pressure;altitude;pressure_sealevel;temperature;humidity
58373;BME280;44177;43.356;27.672;2024-03-02T00:00:08;97995.97;;;6.29;100.00
58373;BME280;44177;43.356;27.672;2024-03-02T00:02:46;97984.81;;;6.22;100.00
58373;BME280;44177;43.356;27.672;2024-03-02T00:05:16;97977.81;;;6.21;100.00
58373;BME280;44177;43.356;27.672;2024-03-02T00:07:43;97961.41;;;6.26;100.00
58373;BME280;44177;43.356;27.672;2024-03-02T00:10:16;97967.94;;;6.25;100.00
58373;BME280;44177;43.356;27.672;2024-03-02T00:12:47;97967.66;;;6.18;100.00
58373;BME280;44177;43.356;27.672;2024-03-02T00:18:02;97980.66;;;6.34;100.00
58373;BME280;44177;43.356;27.672;2024-03-02T00:20:30;97980.38;;;6.26;100.00
58373;BME280;44177;43.356;27.672;2024-03-02T00:23:09;97970.69;;;6.08;100.00
58373;BME280;44177;43.356;27.672;2024-03-02T00:25:47;97945.69;;;6.11;100.00
58373;BME280;44177;43.356;27.672;2024-03-02T00:28:18;97939.59;;;6.14;100.00
58373;BME280;44177;43.356;27.672;2024-03-02T00:33:36;97942.19;;;6.02;100.00
58373;BME280;44177;43.356;27.672;2024-03-02T00:36:05;97968.91;;;6.12;100.00
58373;BME280;44177;43.356;27.672;2024-03-02T00:38:32;97973.38;;;6.16;100.00
58373;BME280;44177;43.356;27.672;2024-03-02T00:41:00;97951.72;;;6.08;100.00
58373;BME280;44177;43.356;27.672;2024-03-02T00:45:52;97956.03;;;6.09;100.00
58373;BME280;44177;43.356;27.672;2024-03-02T00:48:17;97950.91;;;6.16;100.00
58373;BME280;44177;43.356;27.672;2024-03-02T00:50:43;97946.94;;;6.13;100.00
58373;BME280;44177;43.356;27.672;2024-03-02T00:53:12;97931.34;;;6.02;100.00
58373;BME280;44177;43.356;27.672;2024-03-02T00:55:38;97949.00;;;6.16;100.00
58373;BME280;44177;43.356;27.672;2024-03-02T00:58:09;97937.56;;;6.11;100.00
58373;BME280;44177;43.356;27.672;2024-03-02T01:00:34;97949.28;;;6.24;100.00
58373;BME280;44177;43.356;27.672;2024-03-02T01:03:00;97939.59;;;6.23;100.00
58373;BME280;44177;43.356;27.672;2024-03-02T01:05:25;97937.50;;;6.20;100.00
58373;BME280;44177;43.356;27.672;2024-03-02T01:07:51;97940.84;;;6.25;100.00
58373;BME280;44177;43.356;27.672;2024-03-02T01:10:16;97930.00;;;6.25;100.00
58373;BME280;44177;43.356;27.672;2024-03-02T01:12:42;97928.72;;;6.31;100.00
58373;BME280;44177;43.356;27.672;2024-03-02T01:15:07;97923.94;;;6.28;100.00
58373;BME280;44177;43.356;27.672;2024-03-02T01:17:33;97904.25;;;6.10;100.00
58373;BME280;44177;43.356;27.672;2024-03-02T01:19:58;97902.78;;;6.13;100.00
58373;BME280;44177;43.356;27.672;2024-03-02T01:22:24;97900.59;;;6.06;100.00
58373;BME280;44177;43.356;27.672;2024-03-02T01:24:51;97916.19;;;6.09;100.00
58373;BME280;44177;43.356;27.672;2024-03-02T01:27:16;97903.94;;;6.03;100.00
58373;BME280;44177;43.356;27.672;2024-03-02T01:29:42;97906.81;;;5.98;100.00
58373;BME280;44177;43.356;27.672;2024-03-02T01:32:07;97896.78;;;5.90;100.00
58373;BME280;44177;43.356;27.672;2024-03-02T01:34:33;97873.75;;;5.75;100.00
58373;BME280;44177;43.356;27.672;2024-03-02T01:36:58;97884.56;;;5.75;100.00
58373;BME280;44177;43.356;27.672;2024-03-02T01:39:23;97884.88;;;5.73;100.00
58373;BME280;44177;43.356;27.672;2024-03-02T01:41:49;97879.47;;;5.73;100.00
58373;BME280;44177;43.356;27.672;2024-03-02T01:44:14;97882.38;;;5.59;100.00
58373;BME280;44177;43.356;27.672;2024-03-02T01:46:40;97885.88;;;5.60;100.00
58373;BME280;44177;43.356;27.672;2024-03-02T01:49:06;97879.03;;;5.45;100.00
58373;BME280;44177;43.356;27.672;2024-03-02T01:51:31;97889.53;;;5.46;100.00
58373;BME280;44177;43.356;27.672;2024-03-02T01:53:57;97876.66;;;5.34;100.00
58373;BME280;44177;43.356;27.672;2024-03-02T01:56:22;97892.44;;;5.32;100.00
58373;BME280;44177;43.356;27.672;2024-03-02T01:58:48;97876.03;;;5.37;100.00
58373;BME280;44177;43.356;27.672;2024-03-02T02:01:13;97870.63;;;5.37;100.00
58373;BME280;44177;43.356;27.672;2024-03-02T02:03:39;97874.44;;;5.36;100.00
58373;BME280;44177;43.356;27.672;2024-03-02T02:06:06;97827.53;;;5.15;100.00
58373;BME280;44177;43.356;27.672;2024-03-02T02:08:33;97877.94;;;5.37;100.00
58373;BME280;44177;43.356;27.672;2024-03-02T02:10:58;97880.34;;;5.38;100.00
58373;BME280;44177;43.356;27.672;2024-03-02T02:13:24;97880.47;;;5.33;100.00
58373;BME280;44177;43.356;27.672;2024-03-02T02:15:49;97877.31;;;5.31;100.00
58373;BME280;44177;43.356;27.672;2024-03-02T02:18:15;97859.50;;;5.30;100.00
58373;BME280;44177;43.356;27.672;2024-03-02T02:20:41;97866.31;;;5.36;100.00
58373;BME280;44177;43.356;27.672;2024-03-02T02:23:06;97847.56;;;5.31;100.00
58373;BME280;44177;43.356;27.672;2024-03-02T02:25:35;97870.16;;;5.27;100.00
58373;BME280;44177;43.356;27.672;2024-03-02T02:28:00;97876.81;;;5.38;100.00
58373;BME280;44177;43.356;27.672;2024-03-02T02:30:32;97891.28;;;5.33;100.00
58373;BME280;44177;43.356;27.672;2024-03-02T02:32:58;97901.47;;;5.45;100.00
58373;BME280;44177;43.356;27.672;2024-03-02T02:35:24;97890.19;;;5.43;100.00
58373;BME280;44177;43.356;27.672;2024-03-02T02:37:50;97898.31;;;5.43;100.00
58373;BME280;44177;43.356;27.672;2024-03-02T02:40:16;97835.03;;;5.00;100.00
58373;BME280;44177;43.356;27.672;2024-03-02T02:42:44;97890.97;;;5.44;100.00
58373;BME280;44177;43.356;27.672;2024-03-02T02:45:09;97888.91;;;5.49;100.00
58373;BME280;44177;43.356;27.672;2024-03-02T02:47:36;97893.03;;;5.56;100.00
58373;BME280;44177;43.356;27.672;2024-03-02T02:50:06;97899.25;;;5.56;100.00
58373;BME280;44177;43.356;27.672;2024-03-02T02:52:33;97878.88;;;5.50;100.00
58373;BME280;44177;43.356;27.672;2024-03-02T02:54:59;97887.94;;;5.63;100.00
58373;BME280;44177;43.356;27.672;2024-03-02T02:57:24;97871.53;;;5.59;100.00
58373;BME280;44177;43.356;27.672;2024-03-02T02:59:50;97905.59;;;5.78;100.00
58373;BME280;44177;43.356;27.672;2024-03-02T03:02:15;97901.91;;;5.74;100.00
58373;BME280;44177;43.356;27.672;2024-03-02T03:04:41;97903.03;;;5.73;100.00
58373;BME280;44177;43.356;27.672;2024-03-02T03:07:06;97896.97;;;5.76;100.00
58373;BME280;44177;43.356;27.672;2024-03-02T03:09:32;97898.56;;;5.77;100.00
58373;BME280;44177;43.356;27.672;2024-03-02T03:11:57;97906.53;;;5.82;100.00
58373;BME280;44177;43.356;27.672;2024-03-02T03:14:23;97903.34;;;5.80;100.00
58373;BME280;44177;43.356;27.672;2024-03-02T03:16:48;97903.19;;;5.85;100.00
58373;BME280;44177;43.356;27.672;2024-03-02T03:19:14;97883.03;;;5.56;100.00
58373;BME280;44177;43.356;27.672;2024-03-02T03:21:39;97911.47;;;5.71;100.00
58373;BME280;44177;43.356;27.672;2024-03-02T03:24:04;97896.69;;;5.51;100.00
58373;BME280;44177;43.356;27.672;2024-03-02T03:26:30;97894.63;;;5.57;100.00
58373;BME280;44177;43.356;27.672;2024-03-02T03:28:55;97889.22;;;5.57;100.00
58373;BME280;44177;43.356;27.672;2024-03-02T03:31:21;97890.81;;;5.58;100.00
58373;BME280;44177;43.356;27.672;2024-03-02T03:33:46;97896.84;;;5.63;100.00
58373;BME280;44177;43.356;27.672;2024-03-02T03:36:12;97894.16;;;5.63;100.00
58373;BME280;44177;43.356;27.672;2024-03-02T03:38:37;97898.28;;;5.69;100.00
58373;BME280;44177;43.356;27.672;2024-03-02T03:41:03;97854.53;;;5.50;100.00
58373;BME280;44177;43.356;27.672;2024-03-02T03:43:28;97885.69;;;5.74;100.00
58373;BME280;44177;43.356;27.672;2024-03-02T03:45:54;97889.97;;;5.75;100.00
58373;BME280;44177;43.356;27.672;2024-03-02T03:48:20;97878.41;;;5.57;100.00
58373;BME280;44177;43.356;27.672;2024-03-02T03:50:45;97886.00;;;5.72;100.00
58373;BME280;44177;43.356;27.672;2024-03-02T03:53:10;97887.44;;;5.69;100.00
58373;BME280;44177;43.356;27.672;2024-03-02T03:55:36;97899.38;;;5.68;100.00
58373;BME280;44177;43.356;27.672;2024-03-02T03:58:01;97898.59;;;5.59;100.00
58373;BME280;44177;43.356;27.672;2024-03-02T04:00:27;97901.13;;;5.64;100.00
58373;BME280;44177;43.356;27.672;2024-03-02T04:02:52;97897.19;;;5.53;100.00
58373;BME280;44177;43.356;27.672;2024-03-02T04:05:18;97900.03;;;5.57;100.00
58373;BME280;44177;43.356;27.672;2024-03-02T04:07:43;97884.88;;;5.73;100.00
58373;BME280;44177;43.356;27.672;2024-03-02T04:10:09;97883.31;;;5.72;100.00
58373;BME280;44177;43.356;27.672;2024-03-02T04:12:36;97868.50;;;5.61;100.00
58373;BME280;44177;43.356;27.672;2024-03-02T04:15:03;97890.50;;;5.68;100.00
58373;BME280;44177;43.356;27.672;2024-03-02T04:17:29;97889.97;;;5.75;100.00
58373;BME280;44177;43.356;27.672;2024-03-02T04:19:56;97886.63;;;5.78;100.00
58373;BME280;44177;43.356;27.672;2024-03-02T04:22:21;97889.66;;;5.76;100.00
58373;BME280;44177;43.356;27.672;2024-03-02T04:24:47;97899.34;;;5.77;100.00
58373;BME280;44177;43.356;27.672;2024-03-02T04:27:12;97894.91;;;5.81;100.00
58373;BME280;44177;43.356;27.672;2024-03-02T04:29:38;97886.16;;;5.76;100.00
58373;BME280;44177;43.356;27.672;2024-03-02T04:32:03;97902.56;;;5.71;100.00
58373;BME280;44177;43.356;27.672;2024-03-02T04:34:29;97900.66;;;5.80;100.00
58373;BME280;44177;43.356;27.672;2024-03-02T04:36:54;97898.72;;;5.80;100.00
58373;BME280;44177;43.356;27.672;2024-03-02T04:39:20;97895.88;;;5.77;100.00
58373;BME280;44177;43.356;27.672;2024-03-02T04:41:45;97906.22;;;5.75;100.00
58373;BME280;44177;43.356;27.672;2024-03-02T04:44:10;97895.25;;;5.71;100.00
58373;BME280;44177;43.356;27.672;2024-03-02T04:46:36;97902.41;;;5.76;100.00
58373;BME280;44177;43.356;27.672;2024-03-02T04:49:01;97908.78;;;5.80;100.00
58373;BME280;44177;43.356;27.672;2024-03-02T04:51:27;97908.59;;;5.76;100.00
58373;BME280;44177;43.356;27.672;2024-03-02T04:53:52;97907.31;;;5.82;100.00
58373;BME280;44177;43.356;27.672;2024-03-02T04:56:18;97924.34;;;5.83;100.00
58373;BME280;44177;43.356;27.672;2024-03-02T04:59:06;97917.34;;;5.82;100.00
58373;BME280;44177;43.356;27.672;2024-03-02T05:01:32;97902.09;;;5.68;100.00
58373;BME280;44177;43.356;27.672;2024-03-02T05:03:58;97911.16;;;5.81;100.00
58373;BME280;44177;43.356;27.672;2024-03-02T05:06:24;97908.25;;;5.87;100.00
58373;BME280;44177;43.356;27.672;2024-03-02T05:08:49;97904.13;;;5.80;100.00
58373;BME280;44177;43.356;27.672;2024-03-02T05:11:15;97914.66;;;5.73;100.00
58373;BME280;44177;43.356;27.672;2024-03-02T05:13:59;97914.00;;;5.76;100.00
58373;BME280;44177;43.356;27.672;2024-03-02T05:16:24;97920.88;;;5.74;100.00
58373;BME280;44177;43.356;27.672;2024-03-02T05:18:49;97909.91;;;5.52;100.00
58373;BME280;44177;43.356;27.672;2024-03-02T05:21:15;97912.44;;;5.66;100.00
58373;BME280;44177;43.356;27.672;2024-03-02T05:23:40;97915.97;;;5.67;100.00
58373;BME280;44177;43.356;27.672;2024-03-02T05:26:06;97923.13;;;5.72;100.00
58373;BME280;44177;43.356;27.672;2024-03-02T05:28:31;97917.03;;;5.75;100.00
58373;BME280;44177;43.356;27.672;2024-03-02T05:30:57;97908.28;;;5.69;100.00
58373;BME280;44177;43.356;27.672;2024-03-02T05:33:22;97910.34;;;5.81;100.00
58373;BME280;44177;43.356;27.672;2024-03-02T05:35:48;97911.59;;;5.92;100.00
58373;BME280;44177;43.356;27.672;2024-03-02T05:38:15;97916.06;;;5.88;100.00
58373;BME280;44177;43.356;27.672;2024-03-02T05:40:40;97920.50;;;5.93;100.00
58373;BME280;44177;43.356;27.672;2024-03-02T05:43:06;97908.41;;;6.08;100.00
58373;BME280;44177;43.356;27.672;2024-03-02T05:45:31;97896.25;;;6.14;100.00
58373;BME280;44177;43.356;27.672;2024-03-02T05:47:57;97893.41;;;6.19;100.00
58373;BME280;44177;43.356;27.672;2024-03-02T05:50:22;97886.38;;;6.18;100.00
58373;BME280;44177;43.356;27.672;2024-03-02T05:52:48;97900.03;;;6.30;100.00
58373;BME280;44177;43.356;27.672;2024-03-02T05:55:13;97884.31;;;6.15;100.00
58373;BME280;44177;43.356;27.672;2024-03-02T05:57:38;97901.75;;;6.35;100.00
58373;BME280;44177;43.356;27.672;2024-03-02T06:00:15;97891.72;;;6.36;100.00
58373;BME280;44177;43.356;27.672;2024-03-02T06:02:43;97887.38;;;6.43;100.00
58373;BME280;44177;43.356;27.672;2024-03-02T06:05:09;97878.28;;;6.48;100.00
58373;BME280;44177;43.356;27.672;2024-03-02T06:07:34;97878.22;;;6.57;100.00
58373;BME280;44177;43.356;27.672;2024-03-02T06:10:00;97872.50;;;6.58;100.00
58373;BME280;44177;43.356;27.672;2024-03-02T06:12:25;97872.09;;;6.69;100.00
58373;BME280;44177;43.356;27.672;2024-03-02T06:14:51;97875.69;;;6.82;100.00
58373;BME280;44177;43.356;27.672;2024-03-02T06:17:16;97873.78;;;6.82;100.00
58373;BME280;44177;43.356;27.672;2024-03-02T06:19:41;97882.97;;;6.90;100.00
58373;BME280;44177;43.356;27.672;2024-03-02T06:22:07;97880.84;;;6.95;100.00
58373;BME280;44177;43.356;27.672;2024-03-02T06:24:36;97877.03;;;6.97;100.00
58373;BME280;44177;43.356;27.672;2024-03-02T06:27:02;97877.81;;;7.18;100.00
58373;BME280;44177;43.356;27.672;2024-03-02T06:29:27;97877.72;;;7.27;100.00
58373;BME280;44177;43.356;27.672;2024-03-02T06:31:53;97884.81;;;7.40;100.00
58373;BME280;44177;43.356;27.672;2024-03-02T06:34:18;97882.66;;;7.46;100.00
58373;BME280;44177;43.356;27.672;2024-03-02T06:36:44;97884.84;;;7.53;100.00
58373;BME280;44177;43.356;27.672;2024-03-02T06:39:09;97887.53;;;7.40;100.00
58373;BME280;44177;43.356;27.672;2024-03-02T06:41:35;97868.41;;;7.37;100.00
58373;BME280;44177;43.356;27.672;2024-03-02T06:44:00;97851.06;;;7.29;100.00
58373;BME280;44177;43.356;27.672;2024-03-02T06:46:26;97883.88;;;7.70;100.00
58373;BME280;44177;43.356;27.672;2024-03-02T06:48:51;97874.81;;;7.66;100.00
58373;BME280;44177;43.356;27.672;2024-03-02T06:51:17;97878.75;;;8.02;100.00
58373;BME280;44177;43.356;27.672;2024-03-02T06:53:42;97857.72;;;8.11;100.00
58373;BME280;44177;43.356;27.672;2024-03-02T06:56:08;97886.16;;;8.26;100.00
58373;BME280;44177;43.356;27.672;2024-03-02T06:58:33;97886.50;;;8.25;100.00
58373;BME280;44177;43.356;27.672;2024-03-02T07:00:59;97889.44;;;8.32;100.00
58373;BME280;44177;43.356;27.672;2024-03-02T07:03:26;97875.06;;;8.44;100.00
58373;BME280;44177;43.356;27.672;2024-03-02T07:05:51;97888.19;;;8.42;100.00
58373;BME280;44177;43.356;27.672;2024-03-02T07:08:16;97885.13;;;8.18;100.00
58373;BME280;44177;43.356;27.672;2024-03-02T07:10:42;97883.19;;;8.31;100.00
58373;BME280;44177;43.356;27.672;2024-03-02T07:13:07;97882.84;;;8.20;100.00
58373;BME280;44177;43.356;27.672;2024-03-02T07:15:33;97881.97;;;8.16;100.00
58373;BME280;44177;43.356;27.672;2024-03-02T07:18:19;97880.59;;;8.22;100.00
58373;BME280;44177;43.356;27.672;2024-03-02T07:20:44;97874.97;;;8.40;100.00
58373;BME280;44177;43.356;27.672;2024-03-02T07:23:09;97870.31;;;8.53;100.00
58373;BME280;44177;43.356;27.672;2024-03-02T07:25:35;97871.59;;;8.56;100.00
58373;BME280;44177;43.356;27.672;2024-03-02T07:28:00;97871.81;;;8.63;99.88
58373;BME280;44177;43.356;27.672;2024-03-02T07:30:26;97874.50;;;8.75;100.00
58373;BME280;44177;43.356;27.672;2024-03-02T07:32:52;97862.69;;;8.83;98.68
58373;BME280;44177;43.356;27.672;2024-03-02T07:35:17;97867.16;;;9.04;98.40
58373;BME280;44177;43.356;27.672;2024-03-02T07:37:43;97873.06;;;9.06;97.35
58373;BME280;44177;43.356;27.672;2024-03-02T07:40:09;97872.88;;;8.99;96.03
58373;BME280;44177;43.356;27.672;2024-03-02T07:42:40;97870.81;;;9.08;97.05
58373;BME280;44177;43.356;27.672;2024-03-02T07:45:06;97873.00;;;9.31;96.48
58373;BME280;44177;43.356;27.672;2024-03-02T07:47:35;97858.28;;;8.91;94.68
58373;BME280;44177;43.356;27.672;2024-03-02T07:50:01;97866.69;;;9.14;95.14
58373;BME280;44177;43.356;27.672;2024-03-02T07:52:27;97874.88;;;9.14;95.00
58373;BME280;44177;43.356;27.672;2024-03-02T07:54:52;97875.34;;;9.04;94.90
58373;BME280;44177;43.356;27.672;2024-03-02T07:57:19;97883.53;;;8.92;95.90
58373;BME280;44177;43.356;27.672;2024-03-02T07:59:45;97816.50;;;8.71;96.01
58373;BME280;44177;43.356;27.672;2024-03-02T08:02:10;97867.84;;;9.13;94.86
58373;BME280;44177;43.356;27.672;2024-03-02T08:04:37;97862.91;;;9.03;94.20
58373;BME280;44177;43.356;27.672;2024-03-02T08:07:03;97863.88;;;9.11;94.67
58373;BME280;44177;43.356;27.672;2024-03-02T08:09:29;97859.47;;;9.06;93.87
58373;BME280;44177;43.356;27.672;2024-03-02T08:11:55;97857.97;;;9.09;94.36
58373;BME280;44177;43.356;27.672;2024-03-02T08:14:22;97811.88;;;8.47;94.42
58373;BME280;44177;43.356;27.672;2024-03-02T08:16:47;97847.91;;;8.97;94.87
58373;BME280;44177;43.356;27.672;2024-03-02T08:19:13;97867.16;;;9.16;94.17
58373;BME280;44177;43.356;27.672;2024-03-02T08:21:38;97872.53;;;9.29;93.43
58373;BME280;44177;43.356;27.672;2024-03-02T08:24:04;97867.41;;;9.40;92.25
58373;BME280;44177;43.356;27.672;2024-03-02T08:26:29;97865.78;;;9.51;90.83
58373;BME280;44177;43.356;27.672;2024-03-02T08:28:57;97861.91;;;9.52;90.04
58373;BME280;44177;43.356;27.672;2024-03-02T08:31:23;97864.63;;;9.24;90.31
58373;BME280;44177;43.356;27.672;2024-03-02T08:33:48;97870.94;;;9.40;90.02
58373;BME280;44177;43.356;27.672;2024-03-02T08:36:14;97869.91;;;9.61;89.00
58373;BME280;44177;43.356;27.672;2024-03-02T08:38:40;97877.28;;;9.89;87.30
58373;BME280;44177;43.356;27.672;2024-03-02T08:41:06;97877.09;;;9.98;86.03
58373;BME280;44177;43.356;27.672;2024-03-02T08:43:32;97876.16;;;10.22;86.12
58373;BME280;44177;43.356;27.672;2024-03-02T08:45:58;97877.31;;;10.53;84.64
58373;BME280;44177;43.356;27.672;2024-03-02T08:48:24;97870.59;;;10.18;83.47
58373;BME280;44177;43.356;27.672;2024-03-02T08:50:49;97879.69;;;10.38;82.79
58373;BME280;44177;43.356;27.672;2024-03-02T08:53:15;97882.22;;;10.31;82.98
58373;BME280;44177;43.356;27.672;2024-03-02T08:55:47;97883.25;;;10.74;81.57
58373;BME280;44177;43.356;27.672;2024-03-02T08:58:13;97891.91;;;10.96;79.39
58373;BME280;44177;43.356;27.672;2024-03-02T09:00:39;97898.69;;;11.02;79.45
58373;BME280;44177;43.356;27.672;2024-03-02T09:03:05;97885.16;;;10.90;79.48
58373;BME280;44177;43.356;27.672;2024-03-02T09:05:30;97904.56;;;11.04;79.88
58373;BME280;44177;43.356;27.672;2024-03-02T09:07:56;97899.78;;;11.37;77.11
58373;BME280;44177;43.356;27.672;2024-03-02T09:10:21;97897.75;;;11.14;76.10
58373;BME280;44177;43.356;27.672;2024-03-02T09:12:46;97902.88;;;11.16;76.12
58373;BME280;44177;43.356;27.672;2024-03-02T09:15:12;97894.84;;;11.62;76.81
58373;BME280;44177;43.356;27.672;2024-03-02T09:17:38;97902.47;;;12.39;72.58
58373;BME280;44177;43.356;27.672;2024-03-02T09:20:04;97885.63;;;12.37;69.48
58373;BME280;44177;43.356;27.672;2024-03-02T09:22:30;97871.47;;;12.08;70.80
58373;BME280;44177;43.356;27.672;2024-03-02T09:24:56;97892.31;;;11.96;71.36
58373;BME280;44177;43.356;27.672;2024-03-02T09:27:21;97879.00;;;12.38;71.17
58373;BME280;44177;43.356;27.672;2024-03-02T09:29:47;97880.44;;;13.73;66.37
58373;BME280;44177;43.356;27.672;2024-03-02T09:32:13;97873.47;;;14.24;63.17
58373;BME280;44177;43.356;27.672;2024-03-02T09:34:41;97864.06;;;15.47;59.39
58373;BME280;44177;43.356;27.672;2024-03-02T09:37:07;97869.53;;;15.44;54.53
58373;BME280;44177;43.356;27.672;2024-03-02T09:39:33;97857.66;;;15.18;54.38
58373;BME280;44177;43.356;27.672;2024-03-02T09:42:01;97866.34;;;15.35;53.84
58373;BME280;44177;43.356;27.672;2024-03-02T09:44:28;97829.97;;;15.81;54.31
58373;BME280;44177;43.356;27.672;2024-03-02T09:46:53;97856.69;;;17.03;51.88
58373;BME280;44177;43.356;27.672;2024-03-02T09:49:18;97860.19;;;15.67;53.99
58373;BME280;44177;43.356;27.672;2024-03-02T09:51:47;97853.13;;;15.73;51.63
58373;BME280;44177;43.356;27.672;2024-03-02T09:54:13;97854.75;;;15.88;52.80
58373;BME280;44177;43.356;27.672;2024-03-02T09:56:39;97850.56;;;15.17;52.53
58373;BME280;44177;43.356;27.672;2024-03-02T09:59:04;97829.53;;;15.61;53.72
58373;BME280;44177;43.356;27.672;2024-03-02T10:01:30;97847.19;;;15.53;52.75
58373;BME280;44177;43.356;27.672;2024-03-02T10:03:59;97839.06;;;15.96;49.83
58373;BME280;44177;43.356;27.672;2024-03-02T10:06:27;97818.06;;;15.37;51.65
58373;BME280;44177;43.356;27.672;2024-03-02T10:08:53;97835.69;;;15.22;53.83
58373;BME280;44177;43.356;27.672;2024-03-02T10:11:31;97844.09;;;15.72;52.08
58373;BME280;44177;43.356;27.672;2024-03-02T10:14:24;97832.00;;;16.24;50.86
58373;BME280;44177;43.356;27.672;2024-03-02T10:16:50;97826.41;;;16.96;49.77
58373;BME280;44177;43.356;27.672;2024-03-02T10:19:19;97825.56;;;17.14;47.73
58373;BME280;44177;43.356;27.672;2024-03-02T10:21:46;97816.75;;;17.44;48.63
58373;BME280;44177;43.356;27.672;2024-03-02T10:24:12;97815.53;;;18.16;46.66
58373;BME280;44177;43.356;27.672;2024-03-02T10:26:38;97817.91;;;18.14;45.95
58373;BME280;44177;43.356;27.672;2024-03-02T10:29:03;97807.63;;;18.18;45.68
58373;BME280;44177;43.356;27.672;2024-03-02T10:31:29;97807.00;;;18.45;44.61
58373;BME280;44177;43.356;27.672;2024-03-02T10:33:54;97794.59;;;17.62;45.44
58373;BME280;44177;43.356;27.672;2024-03-02T10:36:20;97809.22;;;18.15;45.38
58373;BME280;44177;43.356;27.672;2024-03-02T10:38:46;97804.59;;;18.05;45.57
58373;BME280;44177;43.356;27.672;2024-03-02T10:41:17;97810.06;;;18.09;45.09
58373;BME280;44177;43.356;27.672;2024-03-02T10:43:43;97803.81;;;17.34;45.44
58373;BME280;44177;43.356;27.672;2024-03-02T10:46:11;97801.16;;;17.09;45.94
58373;BME280;44177;43.356;27.672;2024-03-02T10:48:39;97809.97;;;16.38;47.98
58373;BME280;44177;43.356;27.672;2024-03-02T10:51:05;97798.09;;;16.85;47.49
58373;BME280;44177;43.356;27.672;2024-03-02T10:53:30;97789.31;;;17.15;47.26
58373;BME280;44177;43.356;27.672;2024-03-02T10:55:58;97791.09;;;16.44;45.47
58373;BME280;44177;43.356;27.672;2024-03-02T10:58:32;97758.88;;;16.19;46.28
58373;BME280;44177;43.356;27.672;2024-03-02T11:01:02;97794.28;;;16.14;47.24
58373;BME280;44177;43.356;27.672;2024-03-02T11:03:30;97757.72;;;15.84;48.49
58373;BME280;44177;43.356;27.672;2024-03-02T11:05:59;97785.22;;;16.02;48.85
58373;BME280;44177;43.356;27.672;2024-03-02T11:08:26;97786.78;;;16.18;48.34
58373;BME280;44177;43.356;27.672;2024-03-02T11:11:07;97780.84;;;15.65;48.51
58373;BME280;44177;43.356;27.672;2024-03-02T11:13:38;97786.84;;;14.82;50.74
58373;BME280;44177;43.356;27.672;2024-03-02T11:16:38;97780.75;;;15.25;50.42
58373;BME280;44177;43.356;27.672;2024-03-02T11:19:10;97742.88;;;14.68;51.17
58373;BME280;44177;43.356;27.672;2024-03-02T11:21:37;97786.22;;;15.14;52.15
58373;BME280;44177;43.356;27.672;2024-03-02T11:26:47;97778.28;;;14.91;51.95
58373;BME280;44177;43.356;27.672;2024-03-02T11:32:02;97769.38;;;14.46;53.51
58373;BME280;44177;43.356;27.672;2024-03-02T11:34:33;97770.47;;;14.34;52.87
58373;BME280;44177;43.356;27.672;2024-03-02T11:37:01;97765.25;;;14.14;53.45
58373;BME280;44177;43.356;27.672;2024-03-02T11:39:27;97779.28;;;14.05;54.38
58373;BME280;44177;43.356;27.672;2024-03-02T11:41:53;97772.91;;;13.90;54.26
58373;BME280;44177;43.356;27.672;2024-03-02T11:44:20;97776.22;;;14.14;54.70
58373;BME280;44177;43.356;27.672;2024-03-02T11:46:51;97769.22;;;14.20;54.47
58373;BME280;44177;43.356;27.672;2024-03-02T11:52:01;97771.78;;;14.51;53.41
58373;BME280;44177;43.356;27.672;2024-03-02T11:54:30;97773.22;;;14.37;50.90
58373;BME280;44177;43.356;27.672;2024-03-02T11:57:01;97761.53;;;14.44;51.42
58373;BME280;44177;43.356;27.672;2024-03-02T11:59:29;97766.88;;;14.23;51.20
58373;BME280;44177;43.356;27.672;2024-03-02T12:01:55;97767.91;;;14.00;52.45
58373;BME280;44177;43.356;27.672;2024-03-02T12:04:21;97762.19;;;13.74;52.24
58373;BME280;44177;43.356;27.672;2024-03-02T12:06:48;97768.19;;;13.46;53.65
58373;BME280;44177;43.356;27.672;2024-03-02T12:09:20;97766.66;;;13.97;52.63
58373;BME280;44177;43.356;27.672;2024-03-02T12:11:46;97758.69;;;13.78;52.33
58373;BME280;44177;43.356;27.672;2024-03-02T12:14:12;97766.84;;;14.19;52.26
58373;BME280;44177;43.356;27.672;2024-03-02T12:16:44;97761.47;;;14.37;50.81
58373;BME280;44177;43.356;27.672;2024-03-02T12:19:09;97765.41;;;14.40;52.24
58373;BME280;44177;43.356;27.672;2024-03-02T12:21:35;97756.19;;;14.66;51.56
58373;BME280;44177;43.356;27.672;2024-03-02T12:24:01;97761.00;;;14.91;49.87
58373;BME280;44177;43.356;27.672;2024-03-02T12:26:27;97760.19;;;14.83;48.22
58373;BME280;44177;43.356;27.672;2024-03-02T12:28:53;97756.97;;;14.66;48.83
58373;BME280;44177;43.356;27.672;2024-03-02T12:31:20;97756.69;;;14.93;49.02
58373;BME280;44177;43.356;27.672;2024-03-02T12:33:46;97741.00;;;14.90;49.97
58373;BME280;44177;43.356;27.672;2024-03-02T12:36:13;97750.06;;;15.09;50.03
58373;BME280;44177;43.356;27.672;2024-03-02T12:38:43;97748.09;;;14.95;49.64
58373;BME280;44177;43.356;27.672;2024-03-02T12:41:09;97740.66;;;15.06;48.77
58373;BME280;44177;43.356;27.672;2024-03-02T12:43:34;97750.59;;;15.51;48.11
58373;BME280;44177;43.356;27.672;2024-03-02T12:46:00;97750.19;;;15.41;48.47
58373;BME280;44177;43.356;27.672;2024-03-02T12:48:25;97753.91;;;14.82;50.50
58373;BME280;44177;43.356;27.672;2024-03-02T12:50:51;97744.50;;;14.87;49.33
58373;BME280;44177;43.356;27.672;2024-03-02T12:53:17;97748.47;;;15.00;48.77
58373;BME280;44177;43.356;27.672;2024-03-02T12:55:43;97748.13;;;15.09;49.84
58373;BME280;44177;43.356;27.672;2024-03-02T12:58:19;97753.69;;;15.35;48.53
58373;BME280;44177;43.356;27.672;2024-03-02T13:00:46;97752.50;;;15.36;47.68
58373;BME280;44177;43.356;27.672;2024-03-02T13:03:11;97743.84;;;15.23;48.04